Hlavní strana
METAR-TAF:

METAR-TAF

Letiště :

Majuro, Marshallovy ostrovy

zeměpisná šířka: 07-04N, zeměpisná délka: 171-17E, výška: 2 m

Aktuální stav počasí

Zpráva byla vytvořena před 29 minutami, v 23:53 UTC
Východoseverovýchodní vítr 18 kt
Teplota 30°C
Vlhkost vzduchu 79%
Tlak 1009 hPa
Viditelnost: 24.1 km
Skoro jasno ve výšce 1500 ft
Polojasno ve výšce 5000 ft
Oblačno až skoro zataženo ve výšce 30000 ft

METAR: PKMJ 172353Z 06018KT 15SM FEW015 SCT050 BKN300 30/26 A2980

Čas: 12:22 (00:22 UTC)

Předpověď počasí

Zpráva byla vytvořena před 57 minutami, v 23:25 UTC
Předpověď platná od 18 v 00 UTC do 18 v 24 UTC
Východní vítr 13 kt
Viditelnost: 10 km
Polojasno ve výšce 1500 ft
Polojasno ve výšce 5000 ft
přeháňky v blízkosti

TAF: PKMJ 172325Z 1800/1824 09013KT P6SM VCSH SCT015 SCT050

Stav a předpovědi počasí z více než 4 000 letišť (zprávy METAR a TAF).

Červené a žluté tečky na mapě představují dostupné meteorologické stanice.

Když kurzor umístíte na tečku, zobrazí se název stanice.

Pak kliknutím zobrazíte stav a předpověď počasí.

Chcete-li změnit mapu, kliknutím na zelené tlačítko se znaménkem +mapu přiblížíte, kliknutím na zelené tlačítko se znaménkem – mapu oddálíte a kliknutím na zelené šipky přejdete na sousední mapy.


METAR-TAF: